Time;durP1;ratioP1;P1;durP2;ratioP2;P2;SDS_P1;SDS_P2;PMS_P1;PMS_P2;Temp;Humidity;BMP_temperature;BMP_pressure;BME280_temperature;BME280_humidity;BME280_pressure;Samples;Min_cycle;Max_cycle;Signal;HPM_P1;HPM_P2
2023/10/12 08:04:01;;;;;;;;;;;;;;;8.89;100.00;99721.91;4963611;28;19926;-87
2023/10/12 08:11:45;;;;;;;;;;;;;;;7.91;100.00;99728.78;4964350;28;19984;-84
2023/10/12 08:14:39;;;;;;;;;;;;;;;7.87;100.00;99731.59;4962706;28;20333;-90
2023/10/12 08:19:41;;;;;;;;;;;;;;;7.70;100.00;99724.22;4963518;28;19926;-83
2023/10/12 08:22:54;;;;;;;;;;;;;;;7.77;100.00;99718.69;4963806;28;19918;-85
2023/10/12 08:25:04;;;;;;;;;;;;;;;7.75;100.00;99723.13;4957762;28;19919;-83
2023/10/12 08:27:39;;;;;;;;;;;;;;;7.73;100.00;99716.22;4962612;28;19922;-83
2023/10/12 08:30:22;;;;;;;;;;;;;;;7.70;100.00;99709.25;4946035;28;19922;-86
2023/10/12 08:33:09;;;;;;;;;;;;;;;7.59;100.00;99708.72;4963426;28;19922;-85
2023/10/12 08:35:40;;;;;;;;;;;;;;;7.56;100.00;99708.81;4963518;28;19928;-83
2023/10/12 08:38:32;;;;;;;;;;;;;;;7.61;100.00;99713.06;4948185;28;19918;-83
2023/10/12 08:43:45;;;;;;;;;;;;;;;7.69;100.00;99712.81;4966359;28;19973;-83
2023/10/12 08:46:12;;;;;;;;;;;;;;;7.77;100.00;99710.78;4967384;28;20418;-83
2023/10/12 08:48:52;;;;;;;;;;;;;;;7.72;100.00;99699.53;4966629;28;19957;-83
2023/10/12 08:51:19;;;;;;;;;;;;;;;7.52;100.00;99704.56;4966987;28;20366;-86
2023/10/12 08:53:45;;;;;;;;;;;;;;;7.68;100.00;99719.00;4966731;28;19930;-83
2023/10/12 08:56:11;;;;;;;;;;;;;;;7.97;100.00;99711.91;4967703;28;19918;-86
2023/10/12 08:58:44;;;;;;;;;;;;;;;7.74;100.00;99707.41;4965182;28;19941;-85
2023/10/12 09:01:10;;;;;;;;;;;;;;;7.62;100.00;99709.50;4960492;28;19926;-84
2023/10/12 09:03:39;;;;;;;;;;;;;;;7.58;100.00;99721.06;4947082;29;19994;-82
2023/10/12 09:06:19;;;;;;;;;;;;;;;7.53;100.00;99717.72;4947420;29;19918;-84
2023/10/12 09:08:46;;;;;;;;;;;;;;;7.55;100.00;99720.31;4930551;29;19933;-85
2023/10/12 09:13:37;;;;;;;;;;;;;;;7.62;100.00;99735.00;4945525;29;19922;-83
2023/10/12 09:16:02;;;;;;;;;;;;;;;7.62;100.00;99738.50;4947531;29;19922;-83
2023/10/12 09:18:30;;;;;;;;;;;;;;;7.49;100.00;99746.84;4947267;29;19923;-84
2023/10/12 09:23:29;;;;;;;;;;;;;;;15.32;100.00;99741.44;4946771;29;19974;-85
2023/10/12 09:28:43;;;;;;;;;;;;;;;16.05;100.00;99757.22;4946460;29;20290;-84
2023/10/12 09:34:42;;;;;;;;;;;;;;;15.64;100.00;99755.41;4944463;29;19926;-84
2023/10/12 09:37:07;;;;;;;;;;;;;;;11.49;100.00;99782.66;4931279;29;19977;-87
2023/10/12 09:39:34;;;;;;;;;;;;;;;10.47;100.00;99817.16;4930026;29;20409;-85
2023/10/12 09:42:13;;;;;;;;;;;;;;;10.06;100.00;99845.31;4947147;29;20030;-82
2023/10/12 09:44:39;;;;;;;;;;;;;;;9.64;100.00;99868.94;4945249;29;20057;-83
2023/10/12 09:47:15;;;;;;;;;;;;;;;9.40;100.00;99870.72;4946660;29;20366;-84
2023/10/12 09:49:47;;;;;;;;;;;;;;;9.15;100.00;99860.16;4945925;29;19921;-84
2023/10/12 09:52:13;;;;;;;;;;;;;;;9.00;100.00;99847.47;4946797;29;19930;-83
2023/10/12 09:54:48;;;;;;;;;;;;;;;8.91;100.00;99841.63;4946282;29;20373;-82
2023/10/12 09:57:23;;;;;;;;;;;;;;;8.83;100.00;99822.53;4946711;29;20366;-84
2023/10/12 10:02:58;;;;;;;;;;;;;;;8.67;100.00;99809.00;4949976;28;19933;-89
2023/10/12 10:05:29;;;;;;;;;;;;;;;8.51;100.00;99792.81;4965806;28;20448;-86
2023/10/12 10:08:00;;;;;;;;;;;;;;;8.43;100.00;99794.84;4948238;28;19929;-85
2023/10/12 10:10:33;;;;;;;;;;;;;;;8.36;100.00;99806.50;4965252;28;19918;-83
2023/10/12 10:13:00;;;;;;;;;;;;;;;8.34;100.00;99810.97;4963892;28;19918;-85
2023/10/12 10:15:44;;;;;;;;;;;;;;;8.30;100.00;99814.63;4965388;28;19926;-87
2023/10/12 10:18:16;;;;;;;;;;;;;;;8.17;100.00;99796.56;4955710;28;20289;-87
2023/10/12 10:20:53;;;;;;;;;;;;;;;8.14;100.00;99793.16;4965199;28;19926;-84
2023/10/12 10:23:19;;;;;;;;;;;;;;;8.14;100.00;99794.00;4965865;28;20481;-83
2023/10/12 10:25:54;;;;;;;;;;;;;;;8.13;100.00;99781.72;4965039;28;19922;-84
2023/10/12 10:28:23;;;;;;;;;;;;;;;8.04;100.00;99773.25;4963519;28;19918;-86
2023/10/12 10:30:50;;;;;;;;;;;;;;;8.10;100.00;99762.50;4965523;28;20065;-85
2023/10/12 10:33:20;;;;;;;;;;;;;;;8.07;100.00;99760.81;4965043;28;20004;-83
2023/10/12 10:36:10;;;;;;;;;;;;;;;7.97;100.00;99754.13;4965562;28;20005;-92
2023/10/12 10:38:39;;;;;;;;;;;;;;;8.02;100.00;99746.91;4955669;28;19918;-86
2023/10/12 10:41:05;;;;;;;;;;;;;;;7.98;100.00;99729.47;4947225;28;20414;-84
2023/10/12 10:43:31;;;;;;;;;;;;;;;7.94;100.00;99719.91;4963856;28;19969;-83
2023/10/12 10:45:57;;;;;;;;;;;;;;;7.93;100.00;99734.00;4964927;28;20017;-85
2023/10/12 10:48:27;;;;;;;;;;;;;;;7.95;100.00;99730.41;4947826;28;20420;-83
2023/10/12 10:50:53;;;;;;;;;;;;;;;7.95;100.00;99730.41;4964714;28;19918;-86
2023/10/12 10:53:20;;;;;;;;;;;;;;;7.93;100.00;99731.38;4946400;28;19945;-84
2023/10/12 10:55:47;;;;;;;;;;;;;;;7.93;100.00;99737.53;4947211;28;19919;-84
2023/10/12 10:58:14;;;;;;;;;;;;;;;7.94;100.00;99738.38;4963005;28;20447;-85
2023/10/12 11:00:45;;;;;;;;;;;;;;;7.90;100.00;99734.13;4963678;28;19926;-83
2023/10/12 11:03:14;;;;;;;;;;;;;;;7.89;100.00;99727.13;4964805;28;20036;-84
2023/10/12 11:05:40;;;;;;;;;;;;;;;7.91;100.00;99717.38;4964916;28;20359;-83
2023/10/12 11:08:20;;;;;;;;;;;;;;;7.90;100.00;99710.41;4964172;28;20017;-83
2023/10/12 11:11:25;;;;;;;;;;;;;;;7.95;100.00;99727.78;4964124;28;19922;-90
2023/10/12 11:13:38;;;;;;;;;;;;;;;7.91;100.00;99705.03;4962771;28;20164;-87
2023/10/12 11:16:20;;;;;;;;;;;;;;;8.14;100.00;99701.63;4964684;28;20306;-82
2023/10/12 11:18:46;;;;;;;;;;;;;;;8.03;100.00;99689.75;4964452;28;19930;-83
2023/10/12 11:21:13;;;;;;;;;;;;;;;8.05;100.00;99679.97;4947078;28;19971;-85
2023/10/12 11:23:44;;;;;;;;;;;;;;;8.04;100.00;99681.78;4964294;28;20017;-84
2023/10/12 11:26:17;;;;;;;;;;;;;;;7.99;100.00;99666.09;4946946;28;19924;-84
2023/10/12 11:28:42;;;;;;;;;;;;;;;8.05;100.00;99667.63;4945364;28;19918;-83
2023/10/12 11:31:17;;;;;;;;;;;;;;;7.93;100.00;99675.97;4963646;28;19929;-83
2023/10/12 11:34:14;;;;;;;;;;;;;;;8.03;100.00;99677.41;4964585;28;20374;-87
2023/10/12 11:36:39;;;;;;;;;;;;;;;7.99;100.00;99671.38;4958517;28;19961;-88
2023/10/12 11:39:18;;;;;;;;;;;;;;;7.98;100.00;99672.28;4965670;28;20401;-85
2023/10/12 11:42:03;;;;;;;;;;;;;;;7.96;100.00;99670.59;4963793;28;19965;-82
2023/10/12 11:44:32;;;;;;;;;;;;;;;7.97;100.00;99673.16;4962546;28;19918;-85
2023/10/12 11:46:59;;;;;;;;;;;;;;;7.99;100.00;99665.22;4963637;28;19977;-86
2023/10/12 11:49:24;;;;;;;;;;;;;;;8.01;100.00;99666.03;4963738;28;20502;-82
2023/10/12 11:51:53;;;;;;;;;;;;;;;7.98;100.00;99660.88;4963632;28;20008;-83
2023/10/12 11:54:21;;;;;;;;;;;;;;;7.95;100.00;99671.53;4963113;28;20340;-85
2023/10/12 11:56:50;;;;;;;;;;;;;;;7.94;100.00;99667.16;4963507;28;19983;-84
2023/10/12 11:59:25;;;;;;;;;;;;;;;7.92;100.00;99661.06;4962555;28;20374;-82
2023/10/12 12:02:00;;;;;;;;;;;;;;;7.95;100.00;99656.53;4963684;28;19996;-82
2023/10/12 12:04:39;;;;;;;;;;;;;;;8.02;100.00;99657.19;4963469;28;20017;-84
2023/10/12 12:07:04;;;;;;;;;;;;;;;7.94;100.00;99648.69;4964039;28;20289;-83
2023/10/12 12:12:39;;;;;;;;;;;;;;;7.91;100.00;99648.78;4944525;28;19986;-82
2023/10/12 12:15:05;;;;;;;;;;;;;;;7.94;100.00;99649.53;4948353;28;20341;-81
2023/10/12 12:17:30;;;;;;;;;;;;;;;7.91;100.00;99649.63;4948497;28;19969;-82
2023/10/12 12:19:55;;;;;;;;;;;;;;;8.02;100.00;99645.78;4948096;28;20274;-82
2023/10/12 12:22:23;;;;;;;;;;;;;;;7.95;100.00;99645.13;4946813;28;19989;-82
2023/10/12 12:24:48;;;;;;;;;;;;;;;8.02;100.00;99635.22;4944429;28;19923;-81
2023/10/12 12:30:22;;;;;;;;;;;;;;;7.98;100.00;99629.19;4920594;29;19919;-81
2023/10/12 12:32:49;;;;;;;;;;;;;;;7.97;100.00;99632.75;4947716;28;19973;-82
2023/10/12 12:35:15;;;;;;;;;;;;;;;8.03;100.00;99636.97;4962927;28;20094;-81
2023/10/12 12:37:40;;;;;;;;;;;;;;;8.01;100.00;99634.38;4948472;28;20400;-83
2023/10/12 12:42:49;;;;;;;;;;;;;;;8.03;100.00;99627.25;4946633;28;19929;-83
2023/10/12 12:45:15;;;;;;;;;;;;;;;7.97;100.00;99619.56;4930184;29;20297;-83
2023/10/12 12:47:41;;;;;;;;;;;;;;;7.99;100.00;99620.34;4944354;28;19926;-86
2023/10/12 12:50:08;;;;;;;;;;;;;;;7.90;100.00;99612.78;4960134;28;19979;-82
2023/10/12 12:52:36;;;;;;;;;;;;;;;7.91;100.00;99606.56;4946748;29;20013;-81
2023/10/12 12:55:01;;;;;;;;;;;;;;;7.98;100.00;99600.19;4952706;28;19923;-82
2023/10/12 12:57:26;;;;;;;;;;;;;;;7.97;100.00;99601.94;4944238;29;19918;-82
2023/10/12 12:59:52;;;;;;;;;;;;;;;7.96;100.00;99610.78;4945529;28;19978;-81
2023/10/12 13:02:17;;;;;;;;;;;;;;;8.02;100.00;99617.59;4944821;29;19962;-82
2023/10/12 13:04:42;;;;;;;;;;;;;;;8.07;100.00;99615.66;4939181;29;19927;-82
2023/10/12 13:07:12;;;;;;;;;;;;;;;7.98;100.00;99627.41;4944895;28;19974;-82
2023/10/12 13:09:40;;;;;;;;;;;;;;;7.91;100.00;99623.25;4943843;28;19978;-81
2023/10/12 13:12:05;;;;;;;;;;;;;;;7.91;100.00;99617.13;4955421;28;19926;-82
2023/10/12 13:14:31;;;;;;;;;;;;;;;7.93;100.00;99615.28;4960818;28;20329;-81
2023/10/12 13:16:56;;;;;;;;;;;;;;;7.90;100.00;99621.56;4961720;28;19930;-81
2023/10/12 13:19:22;;;;;;;;;;;;;;;7.92;100.00;99616.22;4959723;28;20970;-82
2023/10/12 13:21:47;;;;;;;;;;;;;;;8.60;100.00;99629.66;4967845;28;19922;-84
2023/10/12 13:24:13;;;;;;;;;;;;;;;8.14;100.00;99624.25;4973049;28;19926;-82
2023/10/12 13:26:43;;;;;;;;;;;;;;;8.46;100.00;99627.53;4961800;28;19931;-84
2023/10/12 13:29:09;;;;;;;;;;;;;;;8.41;100.00;99632.06;4965650;28;20255;-84
2023/10/12 13:31:35;;;;;;;;;;;;;;;8.21;100.00;99619.59;4966469;28;19933;-84
2023/10/12 13:34:05;;;;;;;;;;;;;;;8.08;100.00;99617.41;4963324;28;19922;-83
2023/10/12 13:36:30;;;;;;;;;;;;;;;8.08;100.00;99625.31;4963412;28;19922;-83
2023/10/12 13:38:56;;;;;;;;;;;;;;;8.02;100.00;99628.16;4963109;28;19944;-83
2023/10/12 13:41:21;;;;;;;;;;;;;;;8.09;100.00;99629.69;4972590;28;19960;-83
2023/10/12 13:43:48;;;;;;;;;;;;;;;8.03;100.00;99639.59;4962413;28;20014;-82
2023/10/12 13:46:15;;;;;;;;;;;;;;;8.07;100.00;99644.69;4961491;28;19957;-83
2023/10/12 13:48:40;;;;;;;;;;;;;;;8.08;100.00;99632.38;4962896;28;19922;-83
2023/10/12 13:51:23;;;;;;;;;;;;;;;8.09;100.00;99627.03;4960996;28;20358;-83
2023/10/12 13:53:52;;;;;;;;;;;;;;;8.03;100.00;99632.53;4962047;28;19938;-82
2023/10/12 13:56:17;;;;;;;;;;;;;;;8.01;100.00;99626.47;4961285;28;19926;-83
2023/10/12 13:58:44;;;;;;;;;;;;;;;8.06;100.00;99613.06;4959435;28;19990;-82
2023/10/12 14:01:16;;;;;;;;;;;;;;;8.06;100.00;99613.06;4962376;28;19927;-83
2023/10/12 14:03:45;;;;;;;;;;;;;;;8.05;100.00;99624.56;4964439;28;19922;-83
2023/10/12 14:06:10;;;;;;;;;;;;;;;8.00;100.00;99651.97;4955096;28;19930;-82
2023/10/12 14:08:36;;;;;;;;;;;;;;;7.97;100.00;99643.31;4952737;28;20361;-82
2023/10/12 14:11:06;;;;;;;;;;;;;;;7.97;100.00;99630.09;4963928;28;19929;-82
2023/10/12 14:13:31;;;;;;;;;;;;;;;7.95;100.00;99629.31;4960493;28;19988;-82
2023/10/12 14:15:56;;;;;;;;;;;;;;;8.00;100.00;99630.00;4979988;28;20376;-84
2023/10/12 14:18:22;;;;;;;;;;;;;;;7.98;100.00;99626.56;4961681;28;19930;-83
2023/10/12 14:20:49;;;;;;;;;;;;;;;7.98;100.00;99613.38;4977243;28;19926;-90
2023/10/12 14:23:15;;;;;;;;;;;;;;;7.96;100.00;99615.19;4963720;28;20008;-82
2023/10/12 14:25:47;;;;;;;;;;;;;;;7.97;100.00;99623.03;4979543;28;20020;-81
2023/10/12 14:28:17;;;;;;;;;;;;;;;8.01;100.00;99618.53;4964619;28;19930;-84
2023/10/12 14:30:47;;;;;;;;;;;;;;;7.98;100.00;99606.31;4978388;28;19949;-83
2023/10/12 14:33:15;;;;;;;;;;;;;;;7.99;100.00;99628.28;4984231;28;20016;-83
2023/10/12 14:35:40;;;;;;;;;;;;;;;7.98;100.00;99629.19;4984216;28;20377;-82
2023/10/12 14:38:08;;;;;;;;;;;;;;;7.96;100.00;99634.53;4966557;28;19929;-86
2023/10/12 14:40:35;;;;;;;;;;;;;;;7.98;100.00;99619.50;4965104;28;20426;-83
2023/10/12 14:43:06;;;;;;;;;;;;;;;7.99;100.00;99620.34;4966888;28;20424;-87
2023/10/12 14:45:38;;;;;;;;;;;;;;;8.01;100.00;99613.28;4983661;28;19925;-86
2023/10/12 14:48:09;;;;;;;;;;;;;;;8.02;100.00;99607.06;4966541;28;19933;-83
2023/10/12 14:50:38;;;;;;;;;;;;;;;7.99;100.00;99620.34;4983858;28;19926;-83
2023/10/12 14:53:05;;;;;;;;;;;;;;;8.00;100.00;99606.25;4966178;28;20413;-83
2023/10/12 14:55:30;;;;;;;;;;;;;;;7.98;100.00;99613.38;4982812;28;20301;-83
2023/10/12 14:57:55;;;;;;;;;;;;;;;7.97;100.00;99616.91;4983777;28;19919;-82
2023/10/12 15:00:24;;;;;;;;;;;;;;;7.98;100.00;99610.72;4983850;28;20330;-82
2023/10/12 15:02:52;;;;;;;;;;;;;;;8.02;100.00;99598.28;4984118;28;19918;-82
2023/10/12 15:05:18;;;;;;;;;;;;;;;7.98;100.00;99602.81;4983379;28;19918;-85
2023/10/12 15:07:44;;;;;;;;;;;;;;;7.98;100.00;99592.25;4983099;28;20016;-83
2023/10/12 15:10:09;;;;;;;;;;;;;;;8.00;100.00;99599.19;4965204;28;20008;-83
2023/10/12 15:12:37;;;;;;;;;;;;;;;7.99;100.00;99599.25;4983565;28;19922;-83
2023/10/12 15:15:08;;;;;;;;;;;;;;;7.98;100.00;99597.53;4965361;28;20520;-86
2023/10/12 15:17:34;;;;;;;;;;;;;;;7.97;100.00;99596.66;4982490;28;19921;-85
2023/10/12 15:19:59;;;;;;;;;;;;;;;7.97;100.00;99601.94;4983265;28;19925;-83
2023/10/12 15:22:24;;;;;;;;;;;;;;;7.98;100.00;99592.25;4965881;28;19976;-82
2023/10/12 15:24:50;;;;;;;;;;;;;;;7.96;100.00;99594.06;4964885;28;19918;-89
2023/10/12 15:27:15;;;;;;;;;;;;;;;7.99;100.00;99592.22;4966570;28;19928;-83
2023/10/12 15:29:41;;;;;;;;;;;;;;;7.99;100.00;99599.25;4983947;28;19964;-83
2023/10/12 15:32:15;;;;;;;;;;;;;;;8.02;100.00;99598.28;4983311;28;19929;-92
2023/10/12 15:34:42;;;;;;;;;;;;;;;7.96;100.00;99600.22;4985187;28;20362;-85
2023/10/12 15:37:07;;;;;;;;;;;;;;;7.97;100.00;99607.22;4967154;28;19929;-82
2023/10/12 15:39:33;;;;;;;;;;;;;;;7.99;100.00;99620.34;4977427;28;19926;-83
2023/10/12 15:41:58;;;;;;;;;;;;;;;8.00;100.00;99614.16;4980907;28;20004;-83
2023/10/12 15:44:23;;;;;;;;;;;;;;;7.99;100.00;99618.59;4983635;28;19929;-81
2023/10/12 15:46:49;;;;;;;;;;;;;;;8.01;100.00;99608.00;4979113;28;19930;-82
2023/10/12 15:49:14;;;;;;;;;;;;;;;8.01;100.00;99610.63;4979521;28;20532;-83
2023/10/12 15:51:39;;;;;;;;;;;;;;;8.03;100.00;99611.44;4965308;28;19918;-83
2023/10/12 15:54:05;;;;;;;;;;;;;;;8.05;100.00;99603.47;4982567;28;19925;-82
2023/10/12 15:56:32;;;;;;;;;;;;;;;7.99;100.00;99615.97;4981517;28;20404;-82
2023/10/12 15:58:57;;;;;;;;;;;;;;;8.01;100.00;99608.00;4964515;28;19925;-83
2023/10/12 16:01:22;;;;;;;;;;;;;;;8.03;100.00;99610.56;4982646;28;20000;-82
2023/10/12 16:03:48;;;;;;;;;;;;;;;8.04;100.00;99612.28;4980595;28;20328;-82
2023/10/12 16:06:13;;;;;;;;;;;;;;;8.06;100.00;99615.72;4978527;28;19961;-84
2023/10/12 16:08:39;;;;;;;;;;;;;;;7.99;100.00;99620.34;4981772;28;19980;-83
2023/10/12 16:11:05;;;;;;;;;;;;;;;8.00;100.00;99622.09;4973716;28;20772;-83
2023/10/12 16:13:33;;;;;;;;;;;;;;;8.00;100.00;99625.56;4959914;28;19957;-83
2023/10/12 16:16:06;;;;;;;;;;;;;;;7.99;100.00;99620.34;4979387;28;20895;-82
2023/10/12 16:18:31;;;;;;;;;;;;;;;7.99;100.00;99626.50;4981812;28;19922;-82
2023/10/12 16:20:56;;;;;;;;;;;;;;;7.99;100.00;99620.34;4972748;28;19933;-92
2023/10/12 16:23:22;;;;;;;;;;;;;;;7.99;100.00;99617.72;4979273;28;19927;-82
2023/10/12 16:25:51;;;;;;;;;;;;;;;8.02;100.00;99619.41;4974886;28;20029;-82
2023/10/12 16:28:16;;;;;;;;;;;;;;;8.03;100.00;99624.63;4979142;28;19934;-83
2023/10/12 16:30:44;;;;;;;;;;;;;;;8.02;100.00;99620.25;4962273;28;19975;-85
2023/10/12 16:33:10;;;;;;;;;;;;;;;8.06;100.00;99627.16;4977860;28;20345;-86
2023/10/12 16:35:36;;;;;;;;;;;;;;;8.07;100.00;99626.22;4978459;28;19923;-82
2023/10/12 16:38:01;;;;;;;;;;;;;;;8.04;100.00;99621.06;4974730;28;19926;-86
2023/10/12 16:40:29;;;;;;;;;;;;;;;8.04;100.00;99628.13;4977071;28;20278;-83
2023/10/12 16:42:54;;;;;;;;;;;;;;;8.03;100.00;99623.78;4977368;28;19926;-83
2023/10/12 16:45:21;;;;;;;;;;;;;;;8.05;100.00;99622.78;4973273;28;19944;-81
2023/10/12 16:47:46;;;;;;;;;;;;;;;8.08;100.00;99622.69;4976791;28;20024;-82
2023/10/12 16:50:12;;;;;;;;;;;;;;;8.04;100.00;99631.63;4976039;28;20004;-82
2023/10/12 16:52:38;;;;;;;;;;;;;;;8.08;100.00;99629.75;4973732;28;19929;-82
2023/10/12 16:55:09;;;;;;;;;;;;;;;8.07;100.00;99628.84;4974778;28;20114;-82
2023/10/12 16:57:34;;;;;;;;;;;;;;;8.08;100.00;99627.09;4959888;28;20297;-82
2023/10/12 17:00:00;;;;;;;;;;;;;;;8.08;100.00;99630.59;4977711;28;19933;-87
2023/10/12 17:02:25;;;;;;;;;;;;;;;8.07;100.00;99635.91;4979615;28;19930;-82
2023/10/12 17:04:51;;;;;;;;;;;;;;;8.06;100.00;99627.16;4976546;28;19930;-81
2023/10/12 17:07:17;;;;;;;;;;;;;;;8.09;100.00;99632.31;4964868;28;19929;-82
2023/10/12 17:09:43;;;;;;;;;;;;;;;8.06;100.00;99639.47;4973641;28;19926;-82
2023/10/12 17:12:12;;;;;;;;;;;;;;;8.06;100.00;99637.72;4962199;28;20409;-82
2023/10/12 17:14:40;;;;;;;;;;;;;;;8.06;100.00;99623.63;4957483;28;19935;-83
2023/10/12 17:17:06;;;;;;;;;;;;;;;8.06;100.00;99635.06;4955363;28;19923;-82
2023/10/12 17:19:35;;;;;;;;;;;;;;;8.07;100.00;99649.13;4961129;28;19926;-83
2023/10/12 17:22:03;;;;;;;;;;;;;;;8.03;100.00;99643.09;4958199;28;20500;-82
2023/10/12 17:24:28;;;;;;;;;;;;;;;8.03;100.00;99653.66;4958822;28;20302;-81
2023/10/12 17:26:55;;;;;;;;;;;;;;;8.04;100.00;99651.84;4961554;28;19926;-82
2023/10/12 17:29:21;;;;;;;;;;;;;;;7.99;100.00;99658.19;4962934;28;19923;-82
2023/10/12 17:34:23;;;;;;;;;;;;;;;8.04;100.00;99663.31;5195011;23;19930;-82
2023/10/12 17:36:49;;;;;;;;;;;;;;;8.05;100.00;99664.16;4923205;29;19930;-81
2023/10/12 17:39:18;;;;;;;;;;;;;;;8.07;100.00;99670.22;4939479;29;19945;-82
2023/10/12 17:41:47;;;;;;;;;;;;;;;8.03;100.00;99656.28;4929314;29;20027;-82
2023/10/12 17:44:12;;;;;;;;;;;;;;;8.05;100.00;99666.78;4945968;28;19934;-82
2023/10/12 17:46:38;;;;;;;;;;;;;;;8.00;100.00;99669.59;4947454;28;19923;-83
2023/10/12 17:49:03;;;;;;;;;;;;;;;8.04;100.00;99672.97;4929957;29;20392;-83
2023/10/12 17:51:30;;;;;;;;;;;;;;;8.04;100.00;99670.34;4929624;29;20057;-82
2023/10/12 17:53:55;;;;;;;;;;;;;;;8.03;100.00;99674.75;4946119;29;19933;-82
2023/10/12 17:56:21;;;;;;;;;;;;;;;8.06;100.00;99672.00;4945220;29;19922;-81
2023/10/12 17:58:46;;;;;;;;;;;;;;;8.07;100.00;99673.72;4933264;29;19926;-83
2023/10/12 18:01:12;;;;;;;;;;;;;;;8.06;100.00;99679.94;4929979;29;20363;-83
2023/10/12 18:03:41;;;;;;;;;;;;;;;8.03;100.00;99693.22;4928999;29;19949;-82
2023/10/12 18:06:09;;;;;;;;;;;;;;;8.04;100.00;99689.69;4943773;29;19931;-82
2023/10/12 18:08:34;;;;;;;;;;;;;;;8.02;100.00;99690.63;4928858;29;20014;-81
2023/10/12 18:11:08;;;;;;;;;;;;;;;8.02;100.00;99686.22;4932652;29;20013;-83
2023/10/12 18:13:34;;;;;;;;;;;;;;;8.02;100.00;99685.38;4929035;29;19988;-83
2023/10/12 18:16:00;;;;;;;;;;;;;;;8.02;100.00;99683.56;4946595;29;20367;-83
2023/10/12 18:18:25;;;;;;;;;;;;;;;8.05;100.00;99685.25;4930263;29;20041;-83
2023/10/12 18:20:51;;;;;;;;;;;;;;;8.06;100.00;99685.22;4928923;29;19992;-83
2023/10/12 18:23:16;;;;;;;;;;;;;;;8.03;100.00;99685.31;4945616;29;19929;-81
2023/10/12 18:25:41;;;;;;;;;;;;;;;8.01;100.00;99689.78;4944828;29;20496;-83
2023/10/12 18:28:07;;;;;;;;;;;;;;;7.97;100.00;99686.38;4945557;29;19926;-83
2023/10/12 18:30:32;;;;;;;;;;;;;;;8.00;100.00;99690.69;4945222;29;20338;-83
2023/10/12 18:32:59;;;;;;;;;;;;;;;7.99;100.00;99689.84;4949068;28;19932;-82
2023/10/12 18:35:24;;;;;;;;;;;;;;;8.04;100.00;99694.09;4965010;28;20032;-83
2023/10/12 18:37:50;;;;;;;;;;;;;;;8.00;100.00;99688.91;4962994;28;20004;-83
2023/10/12 18:40:16;;;;;;;;;;;;;;;8.03;100.00;99680.03;4962928;28;19937;-83
2023/10/12 18:42:41;;;;;;;;;;;;;;;8.03;100.00;99673.91;4963213;28;20043;-83
2023/10/12 18:45:07;;;;;;;;;;;;;;;8.01;100.00;99679.22;4964841;28;20410;-83
2023/10/12 18:47:32;;;;;;;;;;;;;;;8.03;100.00;99674.75;4941961;28;20043;-83
2023/10/12 18:49:58;;;;;;;;;;;;;;;8.00;100.00;99677.50;4943840;28;19956;-87
2023/10/12 18:52:23;;;;;;;;;;;;;;;8.05;100.00;99670.28;4965050;28;20049;-82
2023/10/12 18:54:49;;;;;;;;;;;;;;;8.04;100.00;99676.50;4944307;28;19926;-84
2023/10/12 18:57:14;;;;;;;;;;;;;;;7.99;100.00;99666.09;4963043;28;19982;-83
2023/10/12 18:59:39;;;;;;;;;;;;;;;8.04;100.00;99670.34;4962840;28;20267;-84
2023/10/12 19:02:05;;;;;;;;;;;;;;;8.05;100.00;99661.50;4962709;28;20021;-83
2023/10/12 19:04:30;;;;;;;;;;;;;;;8.05;100.00;99672.06;4964039;28;19987;-83
2023/10/12 19:06:55;;;;;;;;;;;;;;;8.01;100.00;99671.31;4964904;28;19926;-84
2023/10/12 19:09:21;;;;;;;;;;;;;;;7.97;100.00;99661.78;4944934;28;19926;-82
2023/10/12 19:11:49;;;;;;;;;;;;;;;8.01;100.00;99666.03;4948472;28;20322;-81
2023/10/12 19:14:14;;;;;;;;;;;;;;;7.99;100.00;99655.53;4964252;28;20374;-83
2023/10/12 19:16:39;;;;;;;;;;;;;;;8.06;100.00;99656.19;4966690;28;19926;-81
2023/10/12 19:19:07;;;;;;;;;;;;;;;8.03;100.00;99663.34;4964747;28;20028;-81
2023/10/12 19:21:34;;;;;;;;;;;;;;;8.03;100.00;99669.47;4964574;28;20297;-82
2023/10/12 19:23:59;;;;;;;;;;;;;;;8.00;100.00;99672.22;4963649;28;19931;-83
2023/10/12 19:26:27;;;;;;;;;;;;;;;8.04;100.00;99667.69;4963101;28;20290;-83
2023/10/12 19:28:52;;;;;;;;;;;;;;;8.02;100.00;99672.16;4967545;28;20370;-83
2023/10/12 19:31:18;;;;;;;;;;;;;;;8.03;100.00;99668.63;4963914;28;19924;-83
2023/10/12 19:33:46;;;;;;;;;;;;;;;8.04;100.00;99681.78;4964032;28;20393;-82
2023/10/12 19:36:12;;;;;;;;;;;;;;;8.06;100.00;99679.03;4965283;28;19983;-82
2023/10/12 19:38:38;;;;;;;;;;;;;;;8.06;100.00;99679.94;4965382;28;19965;-83
2023/10/12 19:41:04;;;;;;;;;;;;;;;8.05;100.00;99687.91;4945307;28;19922;-81
2023/10/12 19:43:34;;;;;;;;;;;;;;;8.07;100.00;99686.91;4963660;28;19922;-84
2023/10/12 19:45:59;;;;;;;;;;;;;;;8.07;100.00;99686.06;4946622;28;20333;-83
2023/10/12 19:48:25;;;;;;;;;;;;;;;8.09;100.00;99692.13;4945517;28;19936;-83
2023/10/12 19:50:50;;;;;;;;;;;;;;;8.05;100.00;99682.63;4963073;28;19964;-85
2023/10/12 19:53:15;;;;;;;;;;;;;;;8.10;100.00;99686.81;4947927;28;20029;-83
2023/10/12 19:55:40;;;;;;;;;;;;;;;8.09;100.00;99677.19;4945345;28;19957;-83
2023/10/12 19:58:08;;;;;;;;;;;;;;;8.09;100.00;99685.09;4955093;28;19922;-84
2023/10/12 20:05:40;;;;;;;;;;;;;;;8.08;100.00;99691.28;4963660;28;19977;-83
2023/10/12 20:08:08;;;;;;;;;;;;;;;8.09;100.00;99687.75;4947391;28;20471;-82
2023/10/12 20:10:35;;;;;;;;;;;;;;;8.09;100.00;99685.09;4964962;28;19933;-84
2023/10/12 20:13:05;;;;;;;;;;;;;;;8.13;100.00;99685.84;4963860;28;19957;-84
2023/10/12 20:15:32;;;;;;;;;;;;;;;8.11;100.00;99680.63;4968773;28;19967;-85
2023/10/12 20:18:00;;;;;;;;;;;;;;;8.08;100.00;99667.53;4963860;28;19969;-84
2023/10/12 20:20:25;;;;;;;;;;;;;;;8.12;100.00;99682.38;4962918;28;19926;-82
2023/10/12 20:22:51;;;;;;;;;;;;;;;8.15;100.00;99687.53;4958719;28;20297;-81
2023/10/12 20:25:16;;;;;;;;;;;;;;;8.12;100.00;99689.41;4962126;28;19993;-83
2023/10/12 20:27:41;;;;;;;;;;;;;;;8.12;100.00;99690.28;4946954;28;19930;-85
2023/10/12 20:30:09;;;;;;;;;;;;;;;8.14;100.00;99687.59;4945475;28;20400;-84
2023/10/12 20:32:35;;;;;;;;;;;;;;;8.09;100.00;99679.81;4946424;28;19994;-86
2023/10/12 20:35:00;;;;;;;;;;;;;;;8.13;100.00;99685.84;4966111;28;20420;-84
2023/10/12 20:37:25;;;;;;;;;;;;;;;8.13;100.00;99691.97;4967656;28;19938;-84
2023/10/12 20:39:50;;;;;;;;;;;;;;;8.14;100.00;99680.53;4967187;28;20025;-90
2023/10/12 20:42:19;;;;;;;;;;;;;;;8.15;100.00;99679.63;4967247;28;20028;-90
2023/10/12 20:44:44;;;;;;;;;;;;;;;8.13;100.00;99676.16;4962453;23;19934;-85
2023/10/12 20:47:09;;;;;;;;;;;;;;;8.13;100.00;99684.06;4965957;28;20304;-84
2023/10/12 20:49:39;;;;;;;;;;;;;;;8.16;100.00;99689.25;4965990;28;19929;-85
2023/10/12 20:52:04;;;;;;;;;;;;;;;8.16;100.00;99685.75;4967120;28;19933;-85
2023/10/12 20:54:34;;;;;;;;;;;;;;;8.13;100.00;99685.84;4964013;28;19930;-85
2023/10/12 20:56:59;;;;;;;;;;;;;;;8.14;100.00;99682.31;4966225;28;19933;-85
2023/10/12 21:02:04;;;;;;;;;;;;;;;8.14;100.00;99683.16;4964371;28;19927;-83
2023/10/12 21:04:32;;;;;;;;;;;;;;;8.13;100.00;99681.44;4966291;28;20001;-85
2023/10/12 21:06:58;;;;;;;;;;;;;;;8.13;100.00;99675.28;4967819;28;19926;-83
2023/10/12 21:09:30;;;;;;;;;;;;;;;8.14;100.00;99664.69;4965082;28;19930;-84
2023/10/12 21:11:57;;;;;;;;;;;;;;;8.16;100.00;99669.91;4964840;28;19977;-84
2023/10/12 21:14:34;;;;;;;;;;;;;;;8.13;100.00;99670.03;4964982;28;20381;-83
2023/10/12 21:17:04;;;;;;;;;;;;;;;8.15;100.00;99676.09;4965678;28;19949;-84
2023/10/12 21:19:40;;;;;;;;;;;;;;;8.14;100.00;99672.59;4965499;28;19933;-84
2023/10/12 21:22:19;;;;;;;;;;;;;;;8.18;100.00;99674.25;4972081;28;19999;-90
2023/10/12 21:24:44;;;;;;;;;;;;;;;8.15;100.00;99669.06;4979022;28;19926;-82
2023/10/12 21:27:15;;;;;;;;;;;;;;;8.14;100.00;99674.41;4966365;28;20262;-93
2023/10/12 21:29:48;;;;;;;;;;;;;;;8.14;100.00;99667.34;4971985;28;20262;-83
2023/10/12 21:32:22;;;;;;;;;;;;;;;8.15;100.00;99668.19;4966071;28;19922;-84
2023/10/12 21:34:47;;;;;;;;;;;;;;;8.13;100.00;99668.22;4965427;28;20304;-82
2023/10/12 21:37:13;;;;;;;;;;;;;;;8.14;100.00;99669.97;4965559;28;19934;-83